sensor_id;sensor_type;location;lat;lon;timestamp;P1;durP1;ratioP1;P2;durP2;ratioP2
13943;SDS011;7044;53.286;8.534;2023-05-21T00:01:00;3.80;;;2.80;;
13943;SDS011;7044;53.286;8.534;2023-05-21T00:03:27;6.50;;;2.80;;
13943;SDS011;7044;53.286;8.534;2023-05-21T00:05:55;3.50;;;2.03;;
13943;SDS011;7044;53.286;8.534;2023-05-21T00:08:22;6.68;;;2.80;;
13943;SDS011;7044;53.286;8.534;2023-05-21T00:10:49;5.40;;;3.40;;
13943;SDS011;7044;53.286;8.534;2023-05-21T00:13:17;4.07;;;2.58;;
13943;SDS011;7044;53.286;8.534;2023-05-21T00:15:44;5.85;;;2.92;;
13943;SDS011;7044;53.286;8.534;2023-05-21T00:18:10;4.93;;;2.58;;
13943;SDS011;7044;53.286;8.534;2023-05-21T00:20:37;3.92;;;2.58;;
13943;SDS011;7044;53.286;8.534;2023-05-21T00:23:05;4.68;;;2.50;;
13943;SDS011;7044;53.286;8.534;2023-05-21T00:25:32;3.70;;;2.60;;
13943;SDS011;7044;53.286;8.534;2023-05-21T00:27:59;4.38;;;2.72;;
13943;SDS011;7044;53.286;8.534;2023-05-21T00:30:27;4.63;;;2.70;;
13943;SDS011;7044;53.286;8.534;2023-05-21T00:32:54;5.53;;;2.58;;
13943;SDS011;7044;53.286;8.534;2023-05-21T00:35:22;5.38;;;2.38;;
13943;SDS011;7044;53.286;8.534;2023-05-21T00:37:49;4.50;;;2.58;;
13943;SDS011;7044;53.286;8.534;2023-05-21T00:40:17;5.05;;;2.22;;
13943;SDS011;7044;53.286;8.534;2023-05-21T00:42:45;5.00;;;2.80;;
13943;SDS011;7044;53.286;8.534;2023-05-21T00:45:13;4.45;;;2.50;;
13943;SDS011;7044;53.286;8.534;2023-05-21T00:47:42;4.55;;;2.97;;
13943;SDS011;7044;53.286;8.534;2023-05-21T00:50:09;6.32;;;2.80;;
13943;SDS011;7044;53.286;8.534;2023-05-21T00:52:38;5.20;;;2.70;;
13943;SDS011;7044;53.286;8.534;2023-05-21T00:55:07;4.25;;;2.70;;
13943;SDS011;7044;53.286;8.534;2023-05-21T00:57:34;7.90;;;2.65;;
13943;SDS011;7044;53.286;8.534;2023-05-21T01:00:03;4.30;;;2.30;;
13943;SDS011;7044;53.286;8.534;2023-05-21T01:02:32;3.95;;;2.90;;
13943;SDS011;7044;53.286;8.534;2023-05-21T01:05:02;6.65;;;2.78;;
13943;SDS011;7044;53.286;8.534;2023-05-21T01:07:30;3.53;;;2.65;;
13943;SDS011;7044;53.286;8.534;2023-05-21T01:09:59;5.43;;;2.75;;
13943;SDS011;7044;53.286;8.534;2023-05-21T01:12:27;4.95;;;2.50;;
13943;SDS011;7044;53.286;8.534;2023-05-21T01:14:56;3.50;;;2.60;;
13943;SDS011;7044;53.286;8.534;2023-05-21T01:17:24;5.38;;;2.58;;
13943;SDS011;7044;53.286;8.534;2023-05-21T01:19:52;4.13;;;2.33;;
13943;SDS011;7044;53.286;8.534;2023-05-21T01:22:20;3.80;;;2.30;;
13943;SDS011;7044;53.286;8.534;2023-05-21T01:24:50;4.40;;;2.97;;
13943;SDS011;7044;53.286;8.534;2023-05-21T01:27:19;7.68;;;3.20;;
13943;SDS011;7044;53.286;8.534;2023-05-21T01:29:46;8.52;;;3.00;;
13943;SDS011;7044;53.286;8.534;2023-05-21T01:32:15;4.00;;;2.80;;
13943;SDS011;7044;53.286;8.534;2023-05-21T01:34:49;4.32;;;2.40;;
13943;SDS011;7044;53.286;8.534;2023-05-21T01:37:29;6.45;;;2.50;;
13943;SDS011;7044;53.286;8.534;2023-05-21T01:40:02;6.35;;;2.53;;
13943;SDS011;7044;53.286;8.534;2023-05-21T01:42:35;5.50;;;2.45;;
13943;SDS011;7044;53.286;8.534;2023-05-21T01:45:07;7.10;;;2.65;;
13943;SDS011;7044;53.286;8.534;2023-05-21T01:47:34;4.47;;;2.17;;
13943;SDS011;7044;53.286;8.534;2023-05-21T01:50:03;5.03;;;2.85;;
13943;SDS011;7044;53.286;8.534;2023-05-21T01:52:30;7.22;;;2.50;;
13943;SDS011;7044;53.286;8.534;2023-05-21T01:54:58;2.72;;;2.42;;
13943;SDS011;7044;53.286;8.534;2023-05-21T01:57:27;5.85;;;2.28;;
13943;SDS011;7044;53.286;8.534;2023-05-21T01:59:53;4.05;;;2.38;;
13943;SDS011;7044;53.286;8.534;2023-05-21T02:02:22;2.47;;;2.20;;
13943;SDS011;7044;53.286;8.534;2023-05-21T02:04:48;7.55;;;2.70;;
13943;SDS011;7044;53.286;8.534;2023-05-21T02:07:15;3.50;;;2.53;;
13943;SDS011;7044;53.286;8.534;2023-05-21T02:09:42;3.75;;;2.60;;
13943;SDS011;7044;53.286;8.534;2023-05-21T02:12:09;5.07;;;2.70;;
13943;SDS011;7044;53.286;8.534;2023-05-21T02:14:38;6.10;;;2.50;;
13943;SDS011;7044;53.286;8.534;2023-05-21T02:17:05;5.10;;;2.58;;
13943;SDS011;7044;53.286;8.534;2023-05-21T02:19:33;2.90;;;2.15;;
13943;SDS011;7044;53.286;8.534;2023-05-21T02:21:59;5.97;;;2.95;;
13943;SDS011;7044;53.286;8.534;2023-05-21T02:24:26;4.65;;;2.33;;
13943;SDS011;7044;53.286;8.534;2023-05-21T02:26:53;4.13;;;2.72;;
13943;SDS011;7044;53.286;8.534;2023-05-21T02:29:20;3.92;;;2.45;;
13943;SDS011;7044;53.286;8.534;2023-05-21T02:31:48;7.93;;;3.15;;
13943;SDS011;7044;53.286;8.534;2023-05-21T02:34:15;5.05;;;2.35;;
13943;SDS011;7044;53.286;8.534;2023-05-21T02:36:44;3.33;;;2.60;;
13943;SDS011;7044;53.286;8.534;2023-05-21T02:39:12;3.72;;;2.53;;
13943;SDS011;7044;53.286;8.534;2023-05-21T02:41:39;4.22;;;2.45;;
13943;SDS011;7044;53.286;8.534;2023-05-21T02:44:06;3.00;;;2.28;;
13943;SDS011;7044;53.286;8.534;2023-05-21T02:46:33;2.88;;;2.22;;
13943;SDS011;7044;53.286;8.534;2023-05-21T02:49:01;5.68;;;2.65;;
13943;SDS011;7044;53.286;8.534;2023-05-21T02:51:28;5.05;;;2.58;;
13943;SDS011;7044;53.286;8.534;2023-05-21T02:53:55;2.38;;;2.05;;
13943;SDS011;7044;53.286;8.534;2023-05-21T02:56:22;4.40;;;2.55;;
13943;SDS011;7044;53.286;8.534;2023-05-21T02:58:50;7.50;;;2.55;;
13943;SDS011;7044;53.286;8.534;2023-05-21T03:01:17;4.38;;;2.20;;
13943;SDS011;7044;53.286;8.534;2023-05-21T03:03:43;5.47;;;2.30;;
13943;SDS011;7044;53.286;8.534;2023-05-21T03:06:12;6.25;;;3.10;;
13943;SDS011;7044;53.286;8.534;2023-05-21T03:08:40;3.65;;;2.20;;
13943;SDS011;7044;53.286;8.534;2023-05-21T03:11:07;4.78;;;2.70;;
13943;SDS011;7044;53.286;8.534;2023-05-21T03:13:34;4.03;;;2.22;;
13943;SDS011;7044;53.286;8.534;2023-05-21T03:16:01;2.72;;;2.20;;
13943;SDS011;7044;53.286;8.534;2023-05-21T03:18:27;4.93;;;2.10;;
13943;SDS011;7044;53.286;8.534;2023-05-21T03:20:54;5.65;;;2.65;;
13943;SDS011;7044;53.286;8.534;2023-05-21T03:23:24;6.70;;;2.53;;
13943;SDS011;7044;53.286;8.534;2023-05-21T03:25:51;4.85;;;2.63;;
13943;SDS011;7044;53.286;8.534;2023-05-21T03:28:18;6.45;;;2.63;;
13943;SDS011;7044;53.286;8.534;2023-05-21T03:30:45;3.63;;;2.33;;
13943;SDS011;7044;53.286;8.534;2023-05-21T03:33:13;3.90;;;2.20;;
13943;SDS011;7044;53.286;8.534;2023-05-21T03:35:40;4.70;;;2.50;;
13943;SDS011;7044;53.286;8.534;2023-05-21T03:38:07;8.57;;;2.90;;
13943;SDS011;7044;53.286;8.534;2023-05-21T03:40:36;7.50;;;2.40;;
13943;SDS011;7044;53.286;8.534;2023-05-21T03:43:02;4.15;;;2.50;;
13943;SDS011;7044;53.286;8.534;2023-05-21T03:45:29;4.68;;;2.30;;
13943;SDS011;7044;53.286;8.534;2023-05-21T03:47:56;4.32;;;2.10;;
13943;SDS011;7044;53.286;8.534;2023-05-21T03:50:23;5.65;;;2.70;;
13943;SDS011;7044;53.286;8.534;2023-05-21T03:52:50;7.05;;;2.28;;
13943;SDS011;7044;53.286;8.534;2023-05-21T03:55:17;8.18;;;2.78;;
13943;SDS011;7044;53.286;8.534;2023-05-21T03:57:45;6.40;;;2.60;;
13943;SDS011;7044;53.286;8.534;2023-05-21T04:00:12;5.13;;;2.20;;
13943;SDS011;7044;53.286;8.534;2023-05-21T04:02:39;3.28;;;2.38;;
13943;SDS011;7044;53.286;8.534;2023-05-21T04:05:06;5.75;;;2.22;;
13943;SDS011;7044;53.286;8.534;2023-05-21T04:07:33;8.68;;;2.10;;
13943;SDS011;7044;53.286;8.534;2023-05-21T04:10:02;3.30;;;2.42;;
13943;SDS011;7044;53.286;8.534;2023-05-21T04:12:30;3.80;;;2.55;;
13943;SDS011;7044;53.286;8.534;2023-05-21T04:14:58;6.97;;;2.65;;
13943;SDS011;7044;53.286;8.534;2023-05-21T04:17:26;5.05;;;2.75;;
13943;SDS011;7044;53.286;8.534;2023-05-21T04:19:53;2.90;;;2.05;;
13943;SDS011;7044;53.286;8.534;2023-05-21T04:22:20;4.25;;;2.53;;
13943;SDS011;7044;53.286;8.534;2023-05-21T04:24:50;3.00;;;2.25;;
13943;SDS011;7044;53.286;8.534;2023-05-21T04:27:19;3.28;;;2.80;;
13943;SDS011;7044;53.286;8.534;2023-05-21T04:29:47;6.88;;;2.42;;
13943;SDS011;7044;53.286;8.534;2023-05-21T04:32:16;3.53;;;2.30;;
13943;SDS011;7044;53.286;8.534;2023-05-21T04:34:43;5.15;;;2.65;;
13943;SDS011;7044;53.286;8.534;2023-05-21T04:37:09;4.50;;;2.30;;
13943;SDS011;7044;53.286;8.534;2023-05-21T04:39:37;4.18;;;2.42;;
13943;SDS011;7044;53.286;8.534;2023-05-21T04:42:05;3.67;;;2.28;;
13943;SDS011;7044;53.286;8.534;2023-05-21T04:44:34;4.68;;;2.08;;
13943;SDS011;7044;53.286;8.534;2023-05-21T04:47:01;4.47;;;2.55;;
13943;SDS011;7044;53.286;8.534;2023-05-21T04:49:30;4.57;;;2.55;;
13943;SDS011;7044;53.286;8.534;2023-05-21T04:51:59;4.47;;;2.80;;
13943;SDS011;7044;53.286;8.534;2023-05-21T04:54:26;4.18;;;2.65;;
13943;SDS011;7044;53.286;8.534;2023-05-21T04:56:52;3.15;;;2.10;;
13943;SDS011;7044;53.286;8.534;2023-05-21T04:59:19;4.47;;;2.67;;
13943;SDS011;7044;53.286;8.534;2023-05-21T05:01:46;9.25;;;2.85;;
13943;SDS011;7044;53.286;8.534;2023-05-21T05:04:13;4.13;;;2.20;;
13943;SDS011;7044;53.286;8.534;2023-05-21T05:06:42;7.05;;;2.80;;
13943;SDS011;7044;53.286;8.534;2023-05-21T05:09:08;5.45;;;2.50;;
13943;SDS011;7044;53.286;8.534;2023-05-21T05:11:36;3.38;;;2.67;;
13943;SDS011;7044;53.286;8.534;2023-05-21T05:14:03;3.55;;;2.50;;
13943;SDS011;7044;53.286;8.534;2023-05-21T05:16:30;5.43;;;3.28;;
13943;SDS011;7044;53.286;8.534;2023-05-21T05:18:56;4.63;;;2.50;;
13943;SDS011;7044;53.286;8.534;2023-05-21T05:21:23;6.80;;;2.58;;
13943;SDS011;7044;53.286;8.534;2023-05-21T05:23:52;6.10;;;2.70;;
13943;SDS011;7044;53.286;8.534;2023-05-21T05:26:18;4.00;;;2.72;;
13943;SDS011;7044;53.286;8.534;2023-05-21T05:28:46;5.38;;;2.72;;
13943;SDS011;7044;53.286;8.534;2023-05-21T05:31:13;4.70;;;2.40;;
13943;SDS011;7044;53.286;8.534;2023-05-21T05:33:40;4.55;;;2.25;;
13943;SDS011;7044;53.286;8.534;2023-05-21T05:36:06;4.50;;;2.75;;
13943;SDS011;7044;53.286;8.534;2023-05-21T05:38:33;5.28;;;2.53;;
13943;SDS011;7044;53.286;8.534;2023-05-21T05:41:02;4.95;;;2.88;;
13943;SDS011;7044;53.286;8.534;2023-05-21T05:43:29;4.50;;;2.35;;
13943;SDS011;7044;53.286;8.534;2023-05-21T05:45:56;5.70;;;2.78;;
13943;SDS011;7044;53.286;8.534;2023-05-21T05:48:22;4.78;;;2.95;;
13943;SDS011;7044;53.286;8.534;2023-05-21T05:50:49;5.45;;;2.50;;
13943;SDS011;7044;53.286;8.534;2023-05-21T05:53:18;3.38;;;2.50;;
13943;SDS011;7044;53.286;8.534;2023-05-21T05:55:45;6.63;;;2.53;;
13943;SDS011;7044;53.286;8.534;2023-05-21T05:58:13;5.90;;;2.55;;
13943;SDS011;7044;53.286;8.534;2023-05-21T06:00:41;4.07;;;2.95;;
13943;SDS011;7044;53.286;8.534;2023-05-21T06:03:08;3.65;;;2.75;;
13943;SDS011;7044;53.286;8.534;2023-05-21T06:05:35;4.88;;;3.10;;
13943;SDS011;7044;53.286;8.534;2023-05-21T06:08:02;6.55;;;3.25;;
13943;SDS011;7044;53.286;8.534;2023-05-21T06:10:30;5.40;;;2.95;;
13943;SDS011;7044;53.286;8.534;2023-05-21T06:12:57;3.80;;;3.08;;
13943;SDS011;7044;53.286;8.534;2023-05-21T06:15:25;5.05;;;2.67;;
13943;SDS011;7044;53.286;8.534;2023-05-21T06:17:52;6.47;;;3.10;;
13943;SDS011;7044;53.286;8.534;2023-05-21T06:20:18;3.63;;;2.67;;
13943;SDS011;7044;53.286;8.534;2023-05-21T06:22:45;6.82;;;2.85;;
13943;SDS011;7044;53.286;8.534;2023-05-21T06:25:12;4.18;;;2.92;;
13943;SDS011;7044;53.286;8.534;2023-05-21T06:27:40;4.70;;;3.00;;
13943;SDS011;7044;53.286;8.534;2023-05-21T06:30:07;8.27;;;2.83;;
13943;SDS011;7044;53.286;8.534;2023-05-21T06:32:35;6.55;;;3.30;;
13943;SDS011;7044;53.286;8.534;2023-05-21T06:35:02;10.05;;;2.97;;
13943;SDS011;7044;53.286;8.534;2023-05-21T06:37:29;6.15;;;3.55;;
13943;SDS011;7044;53.286;8.534;2023-05-21T06:39:56;4.45;;;3.00;;
13943;SDS011;7044;53.286;8.534;2023-05-21T06:42:23;6.50;;;3.45;;
13943;SDS011;7044;53.286;8.534;2023-05-21T06:44:50;6.22;;;3.40;;
13943;SDS011;7044;53.286;8.534;2023-05-21T06:47:16;4.88;;;3.10;;
13943;SDS011;7044;53.286;8.534;2023-05-21T06:49:45;5.22;;;3.13;;
13943;SDS011;7044;53.286;8.534;2023-05-21T06:52:11;5.05;;;3.70;;
13943;SDS011;7044;53.286;8.534;2023-05-21T06:54:38;5.78;;;3.45;;
13943;SDS011;7044;53.286;8.534;2023-05-21T06:57:05;5.43;;;3.47;;
13943;SDS011;7044;53.286;8.534;2023-05-21T06:59:32;7.80;;;3.60;;
13943;SDS011;7044;53.286;8.534;2023-05-21T07:01:58;5.95;;;4.10;;
13943;SDS011;7044;53.286;8.534;2023-05-21T07:04:25;6.10;;;3.58;;
13943;SDS011;7044;53.286;8.534;2023-05-21T07:06:53;6.72;;;3.83;;
13943;SDS011;7044;53.286;8.534;2023-05-21T07:09:20;5.95;;;3.35;;
13943;SDS011;7044;53.286;8.534;2023-05-21T07:11:47;7.00;;;3.75;;
13943;SDS011;7044;53.286;8.534;2023-05-21T07:14:14;7.72;;;3.65;;
13943;SDS011;7044;53.286;8.534;2023-05-21T07:16:41;12.57;;;4.10;;
13943;SDS011;7044;53.286;8.534;2023-05-21T07:19:07;4.85;;;3.35;;
13943;SDS011;7044;53.286;8.534;2023-05-21T07:21:34;5.40;;;3.45;;
13943;SDS011;7044;53.286;8.534;2023-05-21T07:24:02;6.28;;;3.90;;
13943;SDS011;7044;53.286;8.534;2023-05-21T07:26:29;5.20;;;3.97;;
13943;SDS011;7044;53.286;8.534;2023-05-21T07:28:56;9.10;;;4.10;;
13943;SDS011;7044;53.286;8.534;2023-05-21T07:31:23;6.55;;;4.30;;
13943;SDS011;7044;53.286;8.534;2023-05-21T07:33:50;5.43;;;4.13;;
13943;SDS011;7044;53.286;8.534;2023-05-21T07:36:17;6.35;;;4.95;;
13943;SDS011;7044;53.286;8.534;2023-05-21T07:38:44;7.38;;;4.22;;
13943;SDS011;7044;53.286;8.534;2023-05-21T07:41:12;5.88;;;4.00;;
13943;SDS011;7044;53.286;8.534;2023-05-21T07:43:39;8.80;;;4.20;;
13943;SDS011;7044;53.286;8.534;2023-05-21T07:46:05;7.45;;;4.88;;
13943;SDS011;7044;53.286;8.534;2023-05-21T07:48:32;8.60;;;4.95;;
13943;SDS011;7044;53.286;8.534;2023-05-21T07:50:59;8.77;;;4.70;;
13943;SDS011;7044;53.286;8.534;2023-05-21T07:53:26;8.98;;;4.55;;
13943;SDS011;7044;53.286;8.534;2023-05-21T07:55:56;9.73;;;4.13;;
13943;SDS011;7044;53.286;8.534;2023-05-21T07:58:24;7.28;;;4.72;;
13943;SDS011;7044;53.286;8.534;2023-05-21T08:00:51;10.93;;;5.78;;
13943;SDS011;7044;53.286;8.534;2023-05-21T08:03:18;7.45;;;4.93;;
13943;SDS011;7044;53.286;8.534;2023-05-21T08:05:45;10.38;;;4.97;;
13943;SDS011;7044;53.286;8.534;2023-05-21T08:08:13;7.68;;;5.55;;
13943;SDS011;7044;53.286;8.534;2023-05-21T08:10:40;8.65;;;5.30;;
13943;SDS011;7044;53.286;8.534;2023-05-21T08:13:07;8.88;;;5.70;;
13943;SDS011;7044;53.286;8.534;2023-05-21T08:15:35;8.55;;;5.60;;
13943;SDS011;7044;53.286;8.534;2023-05-21T08:18:02;8.30;;;5.50;;
13943;SDS011;7044;53.286;8.534;2023-05-21T08:20:30;11.57;;;6.35;;
13943;SDS011;7044;53.286;8.534;2023-05-21T08:22:57;9.52;;;6.35;;
13943;SDS011;7044;53.286;8.534;2023-05-21T08:25:24;12.88;;;6.25;;
13943;SDS011;7044;53.286;8.534;2023-05-21T08:27:51;9.18;;;6.47;;
13943;SDS011;7044;53.286;8.534;2023-05-21T08:30:18;9.40;;;6.45;;
13943;SDS011;7044;53.286;8.534;2023-05-21T08:32:47;9.75;;;5.65;;
13943;SDS011;7044;53.286;8.534;2023-05-21T08:35:13;11.32;;;6.80;;
13943;SDS011;7044;53.286;8.534;2023-05-21T08:37:40;9.05;;;6.30;;
13943;SDS011;7044;53.286;8.534;2023-05-21T08:40:08;16.85;;;6.93;;
13943;SDS011;7044;53.286;8.534;2023-05-21T08:42:38;15.40;;;6.85;;
13943;SDS011;7044;53.286;8.534;2023-05-21T08:45:08;15.55;;;6.90;;
13943;SDS011;7044;53.286;8.534;2023-05-21T08:47:37;10.77;;;7.07;;
13943;SDS011;7044;53.286;8.534;2023-05-21T08:50:09;11.20;;;7.68;;
13943;SDS011;7044;53.286;8.534;2023-05-21T08:52:37;9.00;;;6.55;;
13943;SDS011;7044;53.286;8.534;2023-05-21T08:55:04;10.23;;;7.22;;
13943;SDS011;7044;53.286;8.534;2023-05-21T08:57:32;12.70;;;8.38;;
13943;SDS011;7044;53.286;8.534;2023-05-21T09:00:00;12.48;;;8.43;;
13943;SDS011;7044;53.286;8.534;2023-05-21T09:02:28;10.57;;;8.00;;
13943;SDS011;7044;53.286;8.534;2023-05-21T09:04:59;12.25;;;8.40;;
13943;SDS011;7044;53.286;8.534;2023-05-21T09:07:28;11.15;;;7.80;;
13943;SDS011;7044;53.286;8.534;2023-05-21T09:10:01;15.95;;;8.82;;
13943;SDS011;7044;53.286;8.534;2023-05-21T09:12:30;13.68;;;8.77;;
13943;SDS011;7044;53.286;8.534;2023-05-21T09:14:57;11.13;;;7.97;;
13943;SDS011;7044;53.286;8.534;2023-05-21T09:17:25;12.98;;;8.80;;
13943;SDS011;7044;53.286;8.534;2023-05-21T09:20:06;12.75;;;9.10;;
13943;SDS011;7044;53.286;8.534;2023-05-21T09:22:37;11.38;;;9.13;;
13943;SDS011;7044;53.286;8.534;2023-05-21T09:25:07;16.70;;;9.25;;
13943;SDS011;7044;53.286;8.534;2023-05-21T09:27:35;13.13;;;8.55;;
13943;SDS011;7044;53.286;8.534;2023-05-21T09:30:03;11.88;;;9.18;;
13943;SDS011;7044;53.286;8.534;2023-05-21T09:32:31;13.15;;;9.15;;
13943;SDS011;7044;53.286;8.534;2023-05-21T09:35:03;13.63;;;9.55;;
13943;SDS011;7044;53.286;8.534;2023-05-21T09:37:35;14.07;;;10.00;;
13943;SDS011;7044;53.286;8.534;2023-05-21T09:40:11;17.17;;;9.98;;
13943;SDS011;7044;53.286;8.534;2023-05-21T09:42:39;15.10;;;10.00;;
13943;SDS011;7044;53.286;8.534;2023-05-21T09:45:06;13.05;;;9.52;;
13943;SDS011;7044;53.286;8.534;2023-05-21T09:47:39;15.85;;;9.27;;
13943;SDS011;7044;53.286;8.534;2023-05-21T09:50:07;14.05;;;10.25;;
13943;SDS011;7044;53.286;8.534;2023-05-21T09:52:35;18.75;;;10.50;;
13943;SDS011;7044;53.286;8.534;2023-05-21T09:55:05;16.15;;;10.73;;
13943;SDS011;7044;53.286;8.534;2023-05-21T09:57:32;16.48;;;9.63;;
13943;SDS011;7044;53.286;8.534;2023-05-21T10:00:06;18.48;;;10.82;;
13943;SDS011;7044;53.286;8.534;2023-05-21T10:02:35;14.85;;;10.77;;
13943;SDS011;7044;53.286;8.534;2023-05-21T10:05:04;18.52;;;11.30;;
13943;SDS011;7044;53.286;8.534;2023-05-21T10:07:35;16.30;;;10.48;;
13943;SDS011;7044;53.286;8.534;2023-05-21T10:10:06;16.38;;;10.50;;
13943;SDS011;7044;53.286;8.534;2023-05-21T10:12:38;15.82;;;11.57;;
13943;SDS011;7044;53.286;8.534;2023-05-21T10:15:08;18.00;;;11.57;;
13943;SDS011;7044;53.286;8.534;2023-05-21T10:17:39;21.88;;;11.75;;
13943;SDS011;7044;53.286;8.534;2023-05-21T10:20:07;14.32;;;10.07;;
13943;SDS011;7044;53.286;8.534;2023-05-21T10:22:37;14.70;;;10.88;;
13943;SDS011;7044;53.286;8.534;2023-05-21T10:25:05;15.77;;;11.13;;
13943;SDS011;7044;53.286;8.534;2023-05-21T10:27:33;14.90;;;10.35;;
13943;SDS011;7044;53.286;8.534;2023-05-21T10:30:01;16.27;;;11.25;;
13943;SDS011;7044;53.286;8.534;2023-05-21T10:32:30;17.58;;;10.98;;
13943;SDS011;7044;53.286;8.534;2023-05-21T10:34:57;16.25;;;10.60;;
13943;SDS011;7044;53.286;8.534;2023-05-21T10:37:25;15.02;;;10.32;;
13943;SDS011;7044;53.286;8.534;2023-05-21T10:39:54;15.98;;;10.95;;
13943;SDS011;7044;53.286;8.534;2023-05-21T10:42:24;16.67;;;10.48;;
13943;SDS011;7044;53.286;8.534;2023-05-21T10:45:12;12.98;;;9.93;;
13943;SDS011;7044;53.286;8.534;2023-05-21T10:48:04;13.43;;;11.02;;
13943;SDS011;7044;53.286;8.534;2023-05-21T10:50:44;13.57;;;9.77;;
13943;SDS011;7044;53.286;8.534;2023-05-21T10:53:42;12.90;;;10.05;;
13943;SDS011;7044;53.286;8.534;2023-05-21T10:56:40;14.07;;;11.18;;
13943;SDS011;7044;53.286;8.534;2023-05-21T10:59:13;13.43;;;10.35;;
13943;SDS011;7044;53.286;8.534;2023-05-21T11:01:46;14.43;;;10.77;;
13943;SDS011;7044;53.286;8.534;2023-05-21T11:04:16;15.90;;;10.88;;
13943;SDS011;7044;53.286;8.534;2023-05-21T11:06:47;14.35;;;10.73;;
13943;SDS011;7044;53.286;8.534;2023-05-21T11:09:14;15.32;;;10.85;;
13943;SDS011;7044;53.286;8.534;2023-05-21T11:11:43;13.80;;;10.32;;
13943;SDS011;7044;53.286;8.534;2023-05-21T11:14:25;18.98;;;11.25;;
13943;SDS011;7044;53.286;8.534;2023-05-21T11:17:00;18.10;;;9.88;;
13943;SDS011;7044;53.286;8.534;2023-05-21T11:19:34;14.80;;;10.68;;
13943;SDS011;7044;53.286;8.534;2023-05-21T11:22:06;18.85;;;10.60;;
13943;SDS011;7044;53.286;8.534;2023-05-21T11:24:35;11.98;;;9.95;;
13943;SDS011;7044;53.286;8.534;2023-05-21T11:27:05;13.98;;;9.90;;
13943;SDS011;7044;53.286;8.534;2023-05-21T11:29:36;13.50;;;10.93;;
13943;SDS011;7044;53.286;8.534;2023-05-21T11:32:09;17.20;;;11.20;;
13943;SDS011;7044;53.286;8.534;2023-05-21T11:34:40;15.45;;;9.52;;
13943;SDS011;7044;53.286;8.534;2023-05-21T11:37:22;13.05;;;10.38;;
13943;SDS011;7044;53.286;8.534;2023-05-21T11:43:01;14.60;;;10.50;;
13943;SDS011;7044;53.286;8.534;2023-05-21T11:45:28;15.88;;;10.75;;
13943;SDS011;7044;53.286;8.534;2023-05-21T11:47:56;16.05;;;9.93;;
13943;SDS011;7044;53.286;8.534;2023-05-21T11:50:24;17.08;;;10.93;;
13943;SDS011;7044;53.286;8.534;2023-05-21T11:52:51;17.52;;;10.18;;
13943;SDS011;7044;53.286;8.534;2023-05-21T11:55:21;16.83;;;10.70;;
13943;SDS011;7044;53.286;8.534;2023-05-21T11:57:51;13.50;;;10.45;;
13943;SDS011;7044;53.286;8.534;2023-05-21T12:00:20;16.40;;;10.52;;
13943;SDS011;7044;53.286;8.534;2023-05-21T12:02:48;12.85;;;10.68;;
13943;SDS011;7044;53.286;8.534;2023-05-21T12:05:16;15.07;;;9.88;;
13943;SDS011;7044;53.286;8.534;2023-05-21T12:07:45;16.40;;;10.57;;
13943;SDS011;7044;53.286;8.534;2023-05-21T12:10:14;14.57;;;11.10;;
13943;SDS011;7044;53.286;8.534;2023-05-21T12:12:41;14.50;;;10.60;;
13943;SDS011;7044;53.286;8.534;2023-05-21T12:15:08;15.75;;;10.45;;
13943;SDS011;7044;53.286;8.534;2023-05-21T12:17:38;15.52;;;10.82;;
13943;SDS011;7044;53.286;8.534;2023-05-21T12:20:06;15.18;;;11.05;;
13943;SDS011;7044;53.286;8.534;2023-05-21T12:22:34;13.98;;;10.90;;
13943;SDS011;7044;53.286;8.534;2023-05-21T12:25:06;14.60;;;10.57;;
13943;SDS011;7044;53.286;8.534;2023-05-21T12:27:34;16.95;;;11.95;;
13943;SDS011;7044;53.286;8.534;2023-05-21T12:30:01;20.63;;;11.25;;
13943;SDS011;7044;53.286;8.534;2023-05-21T12:32:29;17.23;;;12.10;;
13943;SDS011;7044;53.286;8.534;2023-05-21T12:34:57;17.15;;;11.82;;
13943;SDS011;7044;53.286;8.534;2023-05-21T12:37:25;16.58;;;11.32;;
13943;SDS011;7044;53.286;8.534;2023-05-21T12:39:57;17.70;;;10.25;;
13943;SDS011;7044;53.286;8.534;2023-05-21T12:42:24;18.30;;;11.93;;
13943;SDS011;7044;53.286;8.534;2023-05-21T12:44:52;17.50;;;12.10;;
13943;SDS011;7044;53.286;8.534;2023-05-21T12:47:21;16.55;;;12.07;;
13943;SDS011;7044;53.286;8.534;2023-05-21T12:49:49;12.75;;;11.10;;
13943;SDS011;7044;53.286;8.534;2023-05-21T12:52:20;13.15;;;11.18;;
13943;SDS011;7044;53.286;8.534;2023-05-21T12:54:48;13.13;;;11.60;;
13943;SDS011;7044;53.286;8.534;2023-05-21T12:57:16;17.10;;;12.40;;
13943;SDS011;7044;53.286;8.534;2023-05-21T12:59:51;15.00;;;11.90;;
13943;SDS011;7044;53.286;8.534;2023-05-21T13:02:22;15.52;;;11.02;;
13943;SDS011;7044;53.286;8.534;2023-05-21T13:04:53;15.75;;;12.10;;
13943;SDS011;7044;53.286;8.534;2023-05-21T13:07:22;15.73;;;11.15;;
13943;SDS011;7044;53.286;8.534;2023-05-21T13:09:50;11.80;;;10.10;;
13943;SDS011;7044;53.286;8.534;2023-05-21T13:12:17;14.07;;;10.30;;
13943;SDS011;7044;53.286;8.534;2023-05-21T13:14:45;14.68;;;9.88;;
13943;SDS011;7044;53.286;8.534;2023-05-21T13:17:12;15.48;;;10.40;;
13943;SDS011;7044;53.286;8.534;2023-05-21T13:19:39;14.75;;;9.52;;
13943;SDS011;7044;53.286;8.534;2023-05-21T13:22:06;11.30;;;9.57;;
13943;SDS011;7044;53.286;8.534;2023-05-21T13:24:35;15.60;;;10.73;;
13943;SDS011;7044;53.286;8.534;2023-05-21T13:27:03;14.10;;;10.05;;
13943;SDS011;7044;53.286;8.534;2023-05-21T13:29:30;13.40;;;10.23;;
13943;SDS011;7044;53.286;8.534;2023-05-21T13:31:58;11.48;;;10.20;;
13943;SDS011;7044;53.286;8.534;2023-05-21T13:34:25;15.35;;;11.13;;
13943;SDS011;7044;53.286;8.534;2023-05-21T13:36:51;12.43;;;10.35;;
13943;SDS011;7044;53.286;8.534;2023-05-21T13:39:18;11.73;;;9.98;;
13943;SDS011;7044;53.286;8.534;2023-05-21T13:41:52;13.50;;;10.48;;
13943;SDS011;7044;53.286;8.534;2023-05-21T13:44:21;15.57;;;9.77;;
13943;SDS011;7044;53.286;8.534;2023-05-21T13:46:48;12.45;;;9.95;;
13943;SDS011;7044;53.286;8.534;2023-05-21T13:49:15;11.23;;;9.60;;
13943;SDS011;7044;53.286;8.534;2023-05-21T13:51:42;10.10;;;8.63;;
13943;SDS011;7044;53.286;8.534;2023-05-21T13:54:09;14.80;;;10.73;;
13943;SDS011;7044;53.286;8.534;2023-05-21T13:56:38;14.40;;;9.50;;
13943;SDS011;7044;53.286;8.534;2023-05-21T13:59:06;11.75;;;9.60;;
13943;SDS011;7044;53.286;8.534;2023-05-21T14:01:33;11.23;;;9.38;;
13943;SDS011;7044;53.286;8.534;2023-05-21T14:03:59;11.77;;;9.52;;
13943;SDS011;7044;53.286;8.534;2023-05-21T14:06:29;15.07;;;10.30;;
13943;SDS011;7044;53.286;8.534;2023-05-21T14:08:56;9.73;;;8.73;;
13943;SDS011;7044;53.286;8.534;2023-05-21T14:11:23;11.65;;;8.80;;
13943;SDS011;7044;53.286;8.534;2023-05-21T14:13:50;9.90;;;8.57;;
13943;SDS011;7044;53.286;8.534;2023-05-21T14:16:19;12.95;;;9.65;;
13943;SDS011;7044;53.286;8.534;2023-05-21T14:18:48;14.52;;;8.75;;
13943;SDS011;7044;53.286;8.534;2023-05-21T14:21:15;19.38;;;8.43;;
13943;SDS011;7044;53.286;8.534;2023-05-21T14:23:42;10.63;;;8.32;;
13943;SDS011;7044;53.286;8.534;2023-05-21T14:26:09;11.07;;;8.82;;
13943;SDS011;7044;53.286;8.534;2023-05-21T14:28:35;11.48;;;9.07;;
13943;SDS011;7044;53.286;8.534;2023-05-21T14:31:02;9.57;;;8.30;;
13943;SDS011;7044;53.286;8.534;2023-05-21T14:33:31;15.07;;;8.93;;
13943;SDS011;7044;53.286;8.534;2023-05-21T14:35:59;13.85;;;8.50;;
13943;SDS011;7044;53.286;8.534;2023-05-21T14:38:26;11.35;;;8.60;;
13943;SDS011;7044;53.286;8.534;2023-05-21T14:40:53;10.27;;;8.63;;
13943;SDS011;7044;53.286;8.534;2023-05-21T14:43:20;10.20;;;8.15;;
13943;SDS011;7044;53.286;8.534;2023-05-21T14:45:48;8.88;;;8.07;;
13943;SDS011;7044;53.286;8.534;2023-05-21T14:48:15;12.13;;;8.25;;
13943;SDS011;7044;53.286;8.534;2023-05-21T14:50:48;9.85;;;8.85;;
13943;SDS011;7044;53.286;8.534;2023-05-21T14:53:15;10.10;;;8.32;;
13943;SDS011;7044;53.286;8.534;2023-05-21T14:55:43;11.20;;;8.52;;
13943;SDS011;7044;53.286;8.534;2023-05-21T14:58:10;12.13;;;8.52;;
13943;SDS011;7044;53.286;8.534;2023-05-21T15:00:37;11.27;;;8.75;;
13943;SDS011;7044;53.286;8.534;2023-05-21T15:03:04;10.02;;;7.93;;